Time;durP1;ratioP1;P1;durP2;ratioP2;P2;SDS_P1;SDS_P2;PMS_P1;PMS_P2;Temp;Humidity;BMP_temperature;BMP_pressure;BME280_temperature;BME280_humidity;BME280_pressure;Samples;Min_cycle;Max_cycle;Signal;HPM_P1;HPM_P2
2023/11/07 00:08:56;;;;;;;30.77;13.53;;;;;;;;;;4306406;33;20231;-95
2023/11/07 00:15:06;;;;;;;21.80;11.60;;;;;;;;;;4304264;33;20307;-96
2023/11/07 00:17:54;;;;;;;21.90;12.03;;;;;;;;;;4294922;33;20259;-95
2023/11/07 00:27:00;;;;;;;24.60;10.87;;;;;;;;;;4331685;33;20251;-95
2023/11/07 00:36:52;;;;;;;19.27;9.67;;;;;;;;;;4327569;33;20622;-96
2023/11/07 00:42:45;;;;;;;20.37;9.50;;;;;;;;;;4318454;33;20282;-96
2023/11/07 00:45:39;;;;;;;17.63;8.17;;;;;;;;;;4326513;33;20235;-95
2023/11/07 00:48:38;;;;;;;21.40;9.63;;;;;;;;;;4336119;33;20293;-96
2023/11/07 00:51:13;;;;;;;14.67;8.07;;;;;;;;;;4334894;33;20305;-95
2023/11/07 00:59:44;;;;;;;16.67;7.90;;;;;;;;;;4317823;33;20243;-96
2023/11/07 01:02:39;;;;;;;17.20;6.80;;;;;;;;;;4320998;33;20227;-96
2023/11/07 01:50:52;;;;;;;16.93;7.53;;;;;;;;;;5316542;27;20345;-96
2023/11/07 01:57:50;;;;;;;20.47;6.80;;;;;;;;;;5287632;27;20223;-96
2023/11/07 02:13:26;;;;;;;14.57;6.70;;;;;;;;;;5313012;27;20278;-95
2023/11/07 02:16:24;;;;;;;18.77;7.80;;;;;;;;;;5304221;27;20702;-96
2023/11/07 02:19:06;;;;;;;20.20;9.10;;;;;;;;;;5312559;27;20208;-96
2023/11/07 02:21:54;;;;;;;17.10;7.77;;;;;;;;;;5310882;27;20207;-96
2023/11/07 02:24:47;;;;;;;14.80;6.63;;;;;;;;;;5312381;27;20196;-96
2023/11/07 02:31:11;;;;;;;25.73;9.43;;;;;;;;;;5243049;27;20189;-95
2023/11/07 02:34:08;;;;;;;12.93;7.40;;;;;;;;;;5247340;27;20253;-96
2023/11/07 02:40:23;;;;;;;16.60;6.00;;;;;;;;;;5305998;27;20208;-95
2023/11/07 02:42:54;;;;;;;12.53;7.40;;;;;;;;;;5307872;27;20516;-95
2023/11/07 02:45:27;;;;;;;13.70;6.37;;;;;;;;;;5303901;27;20235;-95
2023/11/07 02:48:27;;;;;;;16.50;6.37;;;;;;;;;;5307134;27;20256;-94
2023/11/07 02:51:08;;;;;;;14.73;6.93;;;;;;;;;;5304770;27;20192;-96
2023/11/07 02:54:00;;;;;;;12.53;7.93;;;;;;;;;;5307104;27;20281;-94
2023/11/07 02:56:48;;;;;;;;;;;;;;;;;;;;;
2023/11/07 03:06:22;;;;;;;13.90;7.93;;;;;;;;;;5297765;27;20207;-96
2023/11/07 03:13:01;;;;;;;;;;;;;;;;;;;;;
2023/11/07 03:16:09;;;;;;;17.23;6.27;;;;;;;;;;5305541;27;43388;-96
2023/11/07 03:19:49;;;;;;;;;;;;;;;;;;;;;
2023/11/07 03:22:45;;;;;;;13.43;5.93;;;;;;;;;;5304692;27;20247;-96
2023/11/07 03:25:41;;;;;;;16.77;7.93;;;;;;;;;;5327658;27;20170;-95
2023/11/07 03:28:44;;;;;;;;;;;;;;;;;;;;;
2023/11/07 03:37:09;;;;;;;16.10;6.23;;;;;;;;;;5309894;27;20219;-95
2023/11/07 03:39:46;;;;;;;19.40;7.37;;;;;;;;;;5313717;27;20173;-96
2023/11/07 03:51:45;;;;;;;26.90;17.67;;;;;;;;;;5281689;27;20252;-96
2023/11/07 03:54:26;;;;;;;30.67;15.13;;;;;;;;;;5283181;27;20195;-95
2023/11/07 03:57:04;;;;;;;31.07;16.23;;;;;;;;;;5265796;27;20209;-95
2023/11/07 03:59:40;;;;;;;26.80;14.37;;;;;;;;;;5307645;27;20168;-94
2023/11/07 04:02:13;;;;;;;23.67;11.67;;;;;;;;;;5307825;27;20192;-95
2023/11/07 04:05:01;;;;;;;22.63;10.97;;;;;;;;;;5307651;27;20199;-95
2023/11/07 04:10:28;;;;;;;21.13;10.63;;;;;;;;;;5307276;27;20204;-95
2023/11/07 04:13:05;;;;;;;22.77;10.63;;;;;;;;;;5306045;27;20310;-93
2023/11/07 04:15:49;;;;;;;23.40;12.27;;;;;;;;;;5308207;27;20195;-94
2023/11/07 04:18:25;;;;;;;25.37;9.83;;;;;;;;;;5306449;27;20208;-95
2023/11/07 04:21:04;;;;;;;18.70;7.27;;;;;;;;;;5307942;27;20605;-94
2023/11/07 04:23:48;;;;;;;10.77;6.60;;;;;;;;;;5308721;27;20204;-95
2023/11/07 04:26:43;;;;;;;16.03;8.13;;;;;;;;;;5308101;27;20199;-95
2023/11/07 04:29:38;;;;;;;23.30;8.40;;;;;;;;;;5305812;27;20640;-96
2023/11/07 04:32:25;;;;;;;13.93;6.83;;;;;;;;;;5306901;27;20274;-94
2023/11/07 04:35:06;;;;;;;18.30;7.40;;;;;;;;;;5307048;27;20179;-94
2023/11/07 04:46:10;;;;;;;13.90;7.67;;;;;;;;;;5304063;27;20226;-96
2023/11/07 04:48:38;;;;;;;15.23;8.43;;;;;;;;;;5305766;27;20234;-96
2023/11/07 04:51:26;;;;;;;18.93;10.00;;;;;;;;;;5306847;27;21372;-94
2023/11/07 04:54:44;;;;;;;12.30;7.23;;;;;;;;;;5306899;27;20253;-94
2023/11/07 04:57:39;;;;;;;18.13;7.20;;;;;;;;;;5306691;27;20224;-96
2023/11/07 05:00:30;;;;;;;23.10;11.90;;;;;;;;;;5306906;27;20299;-94
2023/11/07 05:06:49;;;;;;;53.53;26.93;;;;;;;;;;5227458;27;20201;-95
2023/11/07 05:09:33;;;;;;;41.90;22.90;;;;;;;;;;5303940;27;20205;-95
2023/11/07 05:12:18;;;;;;;49.33;23.27;;;;;;;;;;5302306;27;20243;-96
2023/11/07 05:14:52;;;;;;;43.07;20.33;;;;;;;;;;5304744;27;20247;-95
2023/11/07 05:17:27;;;;;;;37.20;20.67;;;;;;;;;;5306919;27;20177;-96
2023/11/07 05:20:15;;;;;;;31.93;17.00;;;;;;;;;;5306637;27;20184;-96
2023/11/07 05:23:04;;;;;;;40.53;18.07;;;;;;;;;;5305925;27;20211;-96
2023/11/07 05:25:59;;;;;;;32.73;16.87;;;;;;;;;;5304220;27;20285;-94
2023/11/07 05:29:12;;;;;;;32.93;16.30;;;;;;;;;;5306881;27;20286;-96
2023/11/07 05:32:08;;;;;;;35.03;16.73;;;;;;;;;;5284228;27;20639;-96
2023/11/07 05:34:43;;;;;;;38.00;17.93;;;;;;;;;;5306548;27;20241;-96
2023/11/07 05:37:29;;;;;;;36.33;18.77;;;;;;;;;;5306374;27;20206;-96
2023/11/07 05:40:43;;;;;;;43.70;22.53;;;;;;;;;;5307285;27;20243;-95
2023/11/07 05:47:03;;;;;;;32.87;15.50;;;;;;;;;;5304295;27;20310;-95
2023/11/07 05:49:44;;;;;;;30.47;14.53;;;;;;;;;;5307089;27;20522;-94
2023/11/07 05:52:21;;;;;;;35.50;15.23;;;;;;;;;;5306789;27;20220;-95
2023/11/07 05:55:31;;;;;;;33.53;16.77;;;;;;;;;;5305988;27;20208;-96
2023/11/07 05:58:15;;;;;;;30.93;16.87;;;;;;;;;;5250402;27;20529;-95
2023/11/07 06:04:39;;;;;;;27.83;16.57;;;;;;;;;;5307034;27;20220;-96
2023/11/07 06:10:22;;;;;;;33.03;16.10;;;;;;;;;;5279300;27;20653;-96
2023/11/07 06:13:10;;;;;;;24.80;16.47;;;;;;;;;;5311165;27;20184;-95
2023/11/07 06:16:00;;;;;;;43.27;16.53;;;;;;;;;;5308982;27;20220;-96
2023/11/07 06:18:54;;;;;;;29.53;14.17;;;;;;;;;;5308931;27;20229;-96
2023/11/07 06:21:54;;;;;;;30.20;14.23;;;;;;;;;;5298777;27;20495;-95
2023/11/07 06:27:22;;;;;;;28.77;14.47;;;;;;;;;;5310782;27;20212;-95
2023/11/07 06:33:19;;;;;;;24.50;12.90;;;;;;;;;;5311004;27;20249;-95
2023/11/07 06:39:52;;;;;;;29.70;15.37;;;;;;;;;;5311635;27;20204;-96
2023/11/07 06:42:51;;;;;;;22.17;11.40;;;;;;;;;;5310206;27;20180;-94
2023/11/07 06:48:43;;;;;;;32.27;13.60;;;;;;;;;;5281098;27;20270;-96
2023/11/07 06:51:30;;;;;;;28.57;14.03;;;;;;;;;;5314954;27;20243;-95
2023/11/07 06:54:41;;;;;;;32.80;13.90;;;;;;;;;;5325594;27;20188;-95
2023/11/07 06:57:54;;;;;;;32.13;15.13;;;;;;;;;;5326608;27;20236;-95
2023/11/07 07:01:15;;;;;;;;;;;;;;;;;;;;;
2023/11/07 07:07:22;;;;;;;27.57;16.60;;;;;;;;;;5326688;27;20235;-96
2023/11/07 07:10:09;;;;;;;21.17;13.43;;;;;;;;;;5314651;27;20196;-96
2023/11/07 07:12:41;;;;;;;34.77;12.90;;;;;;;;;;5317367;27;20284;-96
2023/11/07 07:15:18;;;;;;;30.23;15.83;;;;;;;;;;5317930;27;20193;-94
2023/11/07 07:18:22;;;;;;;22.47;15.20;;;;;;;;;;5322991;26;20187;-94
2023/11/07 07:20:55;;;;;;;27.30;15.33;;;;;;;;;;5324140;27;20243;-93
2023/11/07 07:23:33;;;;;;;29.00;15.47;;;;;;;;;;5325281;27;20176;-93
2023/11/07 07:30:59;;;;;;;21.07;12.27;;;;;;;;;;5308090;27;20204;-94
2023/11/07 07:34:12;;;;;;;17.93;10.70;;;;;;;;;;5308930;27;20194;-95
2023/11/07 07:36:47;;;;;;;15.30;8.57;;;;;;;;;;5240941;27;20212;-93
2023/11/07 07:42:58;;;;;;;14.97;7.33;;;;;;;;;;4436249;31;20253;-96
2023/11/07 07:51:19;;;;;;;15.77;6.57;;;;;;;;;;4436115;32;20257;-96
2023/11/07 07:53:55;;;;;;;8.80;5.10;;;;;;;;;;4436473;32;20757;-94
2023/11/07 07:56:48;;;;;;;15.27;5.83;;;;;;;;;;4436650;32;20649;-94
2023/11/07 08:02:27;;;;;;;12.40;5.30;;;;;;;;;;4436335;32;20275;-95
2023/11/07 08:05:06;;;;;;;12.87;6.63;;;;;;;;;;4421900;32;20314;-96
2023/11/07 08:08:07;;;;;;;17.60;6.70;;;;;;;;;;4437044;32;20201;-96
2023/11/07 08:10:40;;;;;;;11.60;6.53;;;;;;;;;;4421804;32;20244;-96
2023/11/07 08:13:35;;;;;;;18.70;6.83;;;;;;;;;;4423181;32;20261;-96
2023/11/07 08:16:21;;;;;;;13.47;7.43;;;;;;;;;;4436675;32;20569;-95
2023/11/07 08:21:48;;;;;;;11.40;6.87;;;;;;;;;;4435427;32;20288;-96
2023/11/07 08:24:38;;;;;;;11.30;6.73;;;;;;;;;;4437066;32;20652;-94
2023/11/07 08:27:25;;;;;;;9.97;6.37;;;;;;;;;;4436252;32;20236;-93
2023/11/07 08:33:28;;;;;;;18.50;13.07;;;;;;;;;;4419311;32;20330;-95
2023/11/07 08:36:20;;;;;;;18.30;13.47;;;;;;;;;;4426135;32;20309;-94
2023/11/07 08:38:51;;;;;;;22.23;11.83;;;;;;;;;;4436886;32;20224;-94
2023/11/07 08:45:04;;;;;;;15.53;5.80;;;;;;;;;;4419321;32;20256;-96
2023/11/07 08:47:52;;;;;;;9.23;5.30;;;;;;;;;;4436437;32;20284;-93
2023/11/07 08:50:25;;;;;;;9.90;4.53;;;;;;;;;;4436398;32;20353;-94
2023/11/07 08:53:30;;;;;;;12.53;4.30;;;;;;;;;;4429231;32;20664;-95
2023/11/07 08:56:08;;;;;;;8.93;4.63;;;;;;;;;;4416494;32;20240;-93
2023/11/07 08:58:45;;;;;;;11.13;4.60;;;;;;;;;;4425800;32;20281;-94
2023/11/07 09:01:25;;;;;;;7.93;4.43;;;;;;;;;;4425886;32;20621;-93
2023/11/07 09:03:54;;;;;;;11.77;4.57;;;;;;;;;;4425678;32;20213;-93
2023/11/07 09:09:14;;;;;;;10.07;3.50;;;;;;;;;;4426371;32;20237;-93
2023/11/07 09:11:55;;;;;;;14.00;4.67;;;;;;;;;;4426914;32;20240;-94
2023/11/07 09:14:36;;;;;;;8.23;4.20;;;;;;;;;;4425424;32;20217;-96
2023/11/07 09:20:01;;;;;;;17.63;4.87;;;;;;;;;;4425526;32;20275;-94
2023/11/07 09:22:45;;;;;;;8.90;4.33;;;;;;;;;;4411344;32;20323;-94
2023/11/07 09:28:26;;;;;;;8.67;3.93;;;;;;;;;;4422652;32;20238;-94
2023/11/07 09:31:14;;;;;;;10.48;3.92;;;;;;;;;;4412149;32;20236;-95
2023/11/07 09:37:08;;;;;;;12.10;3.50;;;;;;;;;;4412552;32;20310;-95
2023/11/07 09:39:47;;;;;;;13.13;4.05;;;;;;;;;;4424991;32;20743;-95
2023/11/07 09:42:50;;;;;;;9.55;4.32;;;;;;;;;;4420538;32;20244;-94
2023/11/07 09:45:45;;;;;;;15.95;4.65;;;;;;;;;;4424944;32;20224;-94
2023/11/07 09:51:36;;;;;;;9.40;3.40;;;;;;;;;;4424433;32;20646;-95
2023/11/07 10:07:39;;;;;;;8.25;3.53;;;;;;;;;;4373558;32;20279;-96
2023/11/07 10:24:15;;;;;;;13.00;3.90;;;;;;;;;;4353929;32;20256;-96
2023/11/07 10:34:19;;;;;;;11.75;4.50;;;;;;;;;;4417172;32;20683;-93
2023/11/07 10:46:40;;;;;;;12.45;5.15;;;;;;;;;;4332876;32;20690;-93
2023/11/07 10:52:57;;;;;;;8.68;4.30;;;;;;;;;;4366083;32;20315;-94
2023/11/07 10:59:45;;;;;;;13.52;4.82;;;;;;;;;;4351736;33;20264;-95
2023/11/07 11:06:23;;;;;;;11.63;5.25;;;;;;;;;;4375581;32;20265;-95
2023/11/07 11:12:21;;;;;;;13.62;3.80;;;;;;;;;;4333854;33;20348;-95
2023/11/07 11:15:15;;;;;;;8.60;6.00;;;;;;;;;;4368317;32;20242;-95
2023/11/07 11:27:55;;;;;;;12.02;3.50;;;;;;;;;;4454228;32;20204;-95
2023/11/07 11:37:39;;;;;;;10.23;4.30;;;;;;;;;;4394524;32;20294;-94
2023/11/07 11:40:20;;;;;;;12.13;3.53;;;;;;;;;;4450154;32;20207;-94
2023/11/07 11:43:11;;;;;;;10.52;2.87;;;;;;;;;;4544470;26;20217;-96
2023/11/07 11:58:44;;;;;;;7.03;2.55;;;;;;;;;;4341950;27;20338;-96
2023/11/07 12:26:12;;;;;;;11.63;4.00;;;;;;;;;;4273129;33;20387;-95
2023/11/07 12:29:20;;;;;;;17.12;5.28;;;;;;;;;;4280898;33;20343;-96
2023/11/07 12:32:39;;;;;;;11.05;4.10;;;;;;;;;;4305202;33;20232;-95
2023/11/07 12:35:54;;;;;;;8.70;3.20;;;;;;;;;;4310181;33;20273;-95
2023/11/07 12:39:05;;;;;;;12.48;3.58;;;;;;;;;;4326195;33;20346;-96
2023/11/07 12:42:05;;;;;;;;;;;;;;;;;;;;;
2023/11/07 12:48:00;;;;;;;14.25;3.80;;;;;;;;;;4333586;33;20585;-94
2023/11/07 12:51:03;;;;;;;9.45;3.28;;;;;;;;;;4356284;32;20288;-94
2023/11/07 13:03:07;;;;;;;30.75;9.73;;;;;;;;;;4409929;32;20241;-94
2023/11/07 13:06:36;;;;;;;19.23;6.90;;;;;;;;;;4410979;32;20259;-94
2023/11/07 13:09:34;;;;;;;11.60;3.45;;;;;;;;;;4403687;32;20311;-94
2023/11/07 13:12:39;;;;;;;7.62;3.10;;;;;;;;;;4409980;32;20588;-94
2023/11/07 13:18:10;;;;;;;10.65;3.20;;;;;;;;;;4378887;32;20388;-92
2023/11/07 13:20:47;;;;;;;10.10;3.08;;;;;;;;;;4380004;32;20270;-95
2023/11/07 13:26:47;;;;;;;17.17;3.55;;;;;;;;;;4373898;32;20260;-95
2023/11/07 13:30:02;;;;;;;13.20;3.17;;;;;;;;;;4359557;32;20250;-93
2023/11/07 13:33:18;;;;;;;14.90;3.20;;;;;;;;;;4361114;32;20234;-96
2023/11/07 13:36:00;;;;;;;11.68;3.15;;;;;;;;;;4378339;32;20294;-94
2023/11/07 13:38:46;;;;;;;21.67;4.35;;;;;;;;;;4377881;32;20252;-96
2023/11/07 13:44:41;;;;;;;11.05;4.32;;;;;;;;;;4376511;32;20269;-95
2023/11/07 13:57:53;;;;;;;15.05;5.03;;;;;;;;;;4317957;33;20625;-95
2023/11/07 14:10:34;;;;;;;19.12;7.47;;;;;;;;;;4347466;33;20296;-96
2023/11/07 14:25:36;;;;;;;17.95;7.62;;;;;;;;;;4407185;27;20265;-94
2023/11/07 14:48:29;;;;;;;22.60;6.75;;;;;;;;;;4371014;32;20242;-96
2023/11/07 14:58:19;;;;;;;26.95;12.25;;;;;;;;;;4273885;33;20315;-96
2023/11/07 15:00:51;;;;;;;23.87;10.50;;;;;;;;;;4285521;33;20233;-95
2023/11/07 15:03:47;;;;;;;23.85;10.48;;;;;;;;;;4345982;33;20257;-96
2023/11/07 15:13:32;;;;;;;35.67;13.57;;;;;;;;;;4292195;33;20248;-94
2023/11/07 15:16:22;;;;;;;25.73;12.65;;;;;;;;;;4287366;33;20237;-95
2023/11/07 15:26:27;;;;;;;27.80;14.45;;;;;;;;;;4285537;33;20329;-96
2023/11/07 15:29:15;;;;;;;28.50;12.37;;;;;;;;;;4322112;33;20275;-96
2023/11/07 15:39:53;;;;;;;38.17;14.63;;;;;;;;;;4391767;32;20246;-96
2023/11/07 15:45:18;;;;;;;37.80;15.63;;;;;;;;;;4386050;32;20224;-96
2023/11/07 15:51:04;;;;;;;43.60;20.20;;;;;;;;;;4386145;32;20233;-96
2023/11/07 15:53:41;;;;;;;54.10;23.38;;;;;;;;;;4392959;32;20237;-96
2023/11/07 15:56:22;;;;;;;46.90;21.00;;;;;;;;;;4401028;32;20194;-96
2023/11/07 15:59:05;;;;;;;44.13;19.40;;;;;;;;;;4405406;32;20260;-96
2023/11/07 16:01:41;;;;;;;33.30;18.55;;;;;;;;;;4405668;32;20264;-96
2023/11/07 16:04:13;;;;;;;40.22;22.83;;;;;;;;;;4408679;32;20284;-96
2023/11/07 16:09:34;;;;;;;38.70;22.20;;;;;;;;;;4408864;32;20233;-96
2023/11/07 16:12:11;;;;;;;45.90;23.20;;;;;;;;;;4409572;32;20254;-96
2023/11/07 16:14:40;;;;;;;41.80;22.10;;;;;;;;;;4408941;32;20645;-96
2023/11/07 16:17:20;;;;;;;38.63;22.27;;;;;;;;;;4384881;32;20264;-96
2023/11/07 16:19:55;;;;;;;54.47;27.45;;;;;;;;;;4394702;32;20262;-96
2023/11/07 16:22:32;;;;;;;49.08;25.52;;;;;;;;;;4393716;32;20237;-96
2023/11/07 16:27:52;;;;;;;51.55;26.83;;;;;;;;;;4392947;32;20343;-96
2023/11/07 16:30:31;;;;;;;50.17;27.25;;;;;;;;;;4393427;32;20205;-96
2023/11/07 16:33:19;;;;;;;41.13;23.08;;;;;;;;;;4393455;32;20245;-96
2023/11/07 16:35:52;;;;;;;39.10;23.30;;;;;;;;;;4393997;32;20323;-96
2023/11/07 16:38:28;;;;;;;39.65;22.70;;;;;;;;;;4393837;32;20287;-96
2023/11/07 16:55:27;;;;;;;32.97;17.65;;;;;;;;;;4418114;27;20276;-96
2023/11/07 16:58:25;;;;;;;46.03;21.40;;;;;;;;;;4379389;32;20234;-96
2023/11/07 17:01:02;;;;;;;36.60;23.00;;;;;;;;;;4393498;32;20204;-96
2023/11/07 17:03:43;;;;;;;40.53;21.10;;;;;;;;;;4392558;32;20198;-96
2023/11/07 17:06:18;;;;;;;37.80;20.60;;;;;;;;;;4393441;32;20198;-96
2023/11/07 17:09:01;;;;;;;36.93;21.13;;;;;;;;;;4394065;32;20347;-96
2023/11/07 17:11:53;;;;;;;33.63;19.40;;;;;;;;;;4394013;32;20203;-96
2023/11/07 17:27:13;;;;;;;42.62;24.70;;;;;;;;;;4316566;32;317452;-86
2023/11/07 17:29:39;;;;;;;43.80;21.30;;;;;;;;;;4297989;33;319357;-86
2023/11/07 17:32:08;;;;;;;39.13;19.80;;;;;;;;;;4300879;33;320441;-86
2023/11/07 17:34:35;;;;;;;40.47;19.27;;;;;;;;;;4294468;33;418557;-81
2023/11/07 17:37:03;;;;;;;29.83;19.17;;;;;;;;;;4316018;32;319398;-82
2023/11/07 17:39:31;;;;;;;37.30;19.00;;;;;;;;;;4307707;32;319477;-81
2023/11/07 17:41:58;;;;;;;35.07;21.17;;;;;;;;;;4323270;32;319486;-82
2023/11/07 17:44:27;;;;;;;37.07;21.87;;;;;;;;;;4297344;32;319487;-78
2023/11/07 17:46:54;;;;;;;38.88;23.73;;;;;;;;;;4316786;32;319081;-82
2023/11/07 17:49:21;;;;;;;39.47;25.83;;;;;;;;;;4307564;33;319304;-81
2023/11/07 17:51:48;;;;;;;46.67;27.47;;;;;;;;;;4302367;33;319495;-79
2023/11/07 17:54:17;;;;;;;40.87;23.93;;;;;;;;;;4296548;33;319552;-83
2023/11/07 17:56:44;;;;;;;48.00;28.37;;;;;;;;;;4311154;32;319503;-79
2023/11/07 17:59:12;;;;;;;50.17;26.10;;;;;;;;;;4305078;32;319592;-78
2023/11/07 18:01:41;;;;;;;43.45;25.62;;;;;;;;;;4301619;33;318899;-78
2023/11/07 18:04:09;;;;;;;45.63;26.27;;;;;;;;;;4309471;32;318750;-78
2023/11/07 18:06:37;;;;;;;43.07;23.00;;;;;;;;;;4289851;33;418604;-84
2023/11/07 18:09:05;;;;;;;39.03;21.60;;;;;;;;;;4315508;33;319614;-81
2023/11/07 18:11:33;;;;;;;37.00;18.63;;;;;;;;;;4305658;33;319458;-82
2023/11/07 18:14:00;;;;;;;44.40;22.42;;;;;;;;;;4314253;33;320154;-79
2023/11/07 18:16:27;;;;;;;57.90;30.13;;;;;;;;;;4296094;33;319488;-80
2023/11/07 18:18:55;;;;;;;59.10;29.93;;;;;;;;;;4316489;32;319399;-83
2023/11/07 18:21:22;;;;;;;58.33;31.07;;;;;;;;;;4306360;33;319751;-80
2023/11/07 18:23:49;;;;;;;67.40;33.43;;;;;;;;;;4316047;33;318750;-84
2023/11/07 18:26:20;;;;;;;70.93;34.60;;;;;;;;;;4301097;33;319446;-81
2023/11/07 18:28:47;;;;;;;57.08;32.30;;;;;;;;;;4316786;33;319533;-83
2023/11/07 18:31:14;;;;;;;53.33;31.48;;;;;;;;;;4311281;32;319309;-82
2023/11/07 18:33:41;;;;;;;66.50;36.03;;;;;;;;;;4310926;33;319394;-84
2023/11/07 18:36:10;;;;;;;70.32;40.92;;;;;;;;;;4314330;33;318914;-81
2023/11/07 18:38:39;;;;;;;70.27;41.07;;;;;;;;;;4294264;32;418138;-83
2023/11/07 18:41:07;;;;;;;63.63;38.60;;;;;;;;;;4314749;32;319552;-83
2023/11/07 18:43:34;;;;;;;58.47;35.73;;;;;;;;;;4303315;33;319563;-80
2023/11/07 18:46:01;;;;;;;48.53;29.98;;;;;;;;;;4311308;32;340807;-82
2023/11/07 18:48:27;;;;;;;63.00;34.95;;;;;;;;;;4298340;33;318845;-83
2023/11/07 18:50:54;;;;;;;79.77;40.23;;;;;;;;;;4315845;33;318810;-80
2023/11/07 18:53:23;;;;;;;62.35;33.85;;;;;;;;;;4305331;33;319208;-82
2023/11/07 18:55:50;;;;;;;56.37;32.40;;;;;;;;;;4314355;33;319579;-82
2023/11/07 18:58:17;;;;;;;49.67;28.57;;;;;;;;;;4303355;33;319667;-79
2023/11/07 19:00:45;;;;;;;57.83;32.70;;;;;;;;;;4314253;33;319192;-82
2023/11/07 19:03:11;;;;;;;53.63;33.00;;;;;;;;;;4312516;32;318768;-82
2023/11/07 19:05:38;;;;;;;61.33;32.63;;;;;;;;;;4330569;32;319606;-81
2023/11/07 19:08:05;;;;;;;53.83;31.13;;;;;;;;;;4328456;32;319355;-79
2023/11/07 19:10:36;;;;;;;58.85;33.28;;;;;;;;;;4312357;32;358901;-82
2023/11/07 19:13:03;;;;;;;64.47;34.00;;;;;;;;;;4328156;32;319453;-80
2023/11/07 19:15:30;;;;;;;40.70;24.57;;;;;;;;;;4321280;32;319228;-81
2023/11/07 19:17:56;;;;;;;34.75;24.58;;;;;;;;;;4331615;32;319535;-82
2023/11/07 19:20:23;;;;;;;51.07;28.53;;;;;;;;;;4307828;32;319156;-80
2023/11/07 19:22:50;;;;;;;59.93;33.67;;;;;;;;;;4312474;33;319355;-80
2023/11/07 19:25:17;;;;;;;84.50;46.78;;;;;;;;;;4288981;33;319353;-80
2023/11/07 19:27:46;;;;;;;71.25;40.75;;;;;;;;;;4306326;32;318867;-82
2023/11/07 19:30:14;;;;;;;65.90;39.40;;;;;;;;;;4299605;33;366401;-77
2023/11/07 19:32:41;;;;;;;63.00;35.63;;;;;;;;;;4309844;33;319284;-80
2023/11/07 19:35:08;;;;;;;55.93;34.83;;;;;;;;;;4315744;33;318703;-80
2023/11/07 19:37:36;;;;;;;57.17;27.23;;;;;;;;;;4302280;33;419037;-77
2023/11/07 19:40:04;;;;;;;45.97;24.13;;;;;;;;;;4313903;33;318627;-78
2023/11/07 19:42:31;;;;;;;48.40;26.67;;;;;;;;;;4296751;33;319450;-79
2023/11/07 19:44:59;;;;;;;37.03;23.10;;;;;;;;;;4307429;33;318931;-79
2023/11/07 19:47:26;;;;;;;52.23;27.67;;;;;;;;;;4300934;33;319176;-84
2023/11/07 19:49:53;;;;;;;51.03;31.27;;;;;;;;;;4315351;33;319186;-79
2023/11/07 19:52:21;;;;;;;58.10;33.27;;;;;;;;;;4298255;33;319766;-80
2023/11/07 19:54:48;;;;;;;55.00;32.50;;;;;;;;;;4314572;33;331550;-77
2023/11/07 19:57:15;;;;;;;60.65;31.98;;;;;;;;;;4304927;33;319541;-80
2023/11/07 19:59:42;;;;;;;55.77;33.03;;;;;;;;;;4314129;33;319232;-80
2023/11/07 20:02:10;;;;;;;62.33;36.43;;;;;;;;;;4316869;33;319189;-79
2023/11/07 20:04:37;;;;;;;47.10;30.97;;;;;;;;;;4295699;33;418306;-79
2023/11/07 20:07:04;;;;;;;63.57;33.73;;;;;;;;;;4324267;32;319360;-77
2023/11/07 20:09:31;;;;;;;49.57;30.47;;;;;;;;;;4308605;33;319118;-77
2023/11/07 20:11:59;;;;;;;57.07;30.40;;;;;;;;;;4316733;33;319231;-82
2023/11/07 20:14:26;;;;;;;69.30;36.27;;;;;;;;;;4295192;33;339198;-84
2023/11/07 20:16:54;;;;;;;77.17;40.17;;;;;;;;;;4314808;33;319570;-77
2023/11/07 20:19:22;;;;;;;67.10;39.50;;;;;;;;;;4299714;33;319299;-83
2023/11/07 20:21:49;;;;;;;69.70;37.83;;;;;;;;;;4315420;33;319431;-79
2023/11/07 20:24:15;;;;;;;116.70;57.50;;;;;;;;;;4305749;33;319325;-79
2023/11/07 20:26:42;;;;;;;91.27;48.17;;;;;;;;;;4310754;33;320501;-79
2023/11/07 20:29:09;;;;;;;87.50;42.57;;;;;;;;;;4315435;33;319721;-82
2023/11/07 20:31:36;;;;;;;73.23;43.67;;;;;;;;;;4301186;33;418338;-79
2023/11/07 20:34:03;;;;;;;61.43;35.53;;;;;;;;;;4315694;33;319327;-79
2023/11/07 20:36:31;;;;;;;85.80;46.93;;;;;;;;;;4298930;33;318628;-78
2023/11/07 20:38:58;;;;;;;71.93;41.87;;;;;;;;;;4316093;33;319310;-78
2023/11/07 20:41:24;;;;;;;74.37;41.93;;;;;;;;;;4304473;33;319222;-83
2023/11/07 20:43:54;;;;;;;72.93;43.50;;;;;;;;;;4314804;33;319195;-81
2023/11/07 20:46:22;;;;;;;76.13;41.60;;;;;;;;;;4298341;33;319566;-78
2023/11/07 20:48:49;;;;;;;62.43;38.57;;;;;;;;;;4317382;33;319304;-81
2023/11/07 20:51:16;;;;;;;64.80;38.77;;;;;;;;;;4308490;33;320095;-79
2023/11/07 20:53:45;;;;;;;72.10;44.33;;;;;;;;;;4318601;33;319337;-80
2023/11/07 20:56:12;;;;;;;56.90;36.80;;;;;;;;;;4308037;33;319246;-79
2023/11/07 20:58:40;;;;;;;62.27;36.67;;;;;;;;;;4313157;32;319302;-81
2023/11/07 21:01:07;;;;;;;77.90;41.03;;;;;;;;;;4316498;33;319280;-78
2023/11/07 21:03:34;;;;;;;61.13;33.63;;;;;;;;;;4316877;32;319229;-80
2023/11/07 21:06:00;;;;;;;57.13;32.67;;;;;;;;;;4330356;32;319310;-80
2023/11/07 21:08:27;;;;;;;54.13;27.67;;;;;;;;;;4303403;32;319303;-80
2023/11/07 21:10:56;;;;;;;44.20;24.60;;;;;;;;;;4316380;33;319477;-79
2023/11/07 21:13:25;;;;;;;52.17;25.40;;;;;;;;;;4308382;33;318601;-81
2023/11/07 21:15:52;;;;;;;44.47;26.73;;;;;;;;;;4318370;33;325690;-80
2023/11/07 21:18:18;;;;;;;50.00;26.67;;;;;;;;;;4302147;33;319474;-79
2023/11/07 21:20:45;;;;;;;56.70;29.87;;;;;;;;;;4317267;33;319326;-79
2023/11/07 21:23:12;;;;;;;51.13;30.83;;;;;;;;;;4306354;32;346967;-81
2023/11/07 21:25:38;;;;;;;54.23;29.73;;;;;;;;;;4310782;33;319295;-80
2023/11/07 21:28:06;;;;;;;51.70;28.37;;;;;;;;;;4317335;33;319333;-79
2023/11/07 21:30:33;;;;;;;42.93;24.90;;;;;;;;;;4300335;33;319210;-86
2023/11/07 21:33:04;;;;;;;40.03;21.37;;;;;;;;;;4297186;33;319260;-76
2023/11/07 21:35:30;;;;;;;34.90;17.10;;;;;;;;;;4288829;33;322674;-85
2023/11/07 21:37:57;;;;;;;39.03;15.30;;;;;;;;;;4300948;33;318927;-86
2023/11/07 21:40:24;;;;;;;33.67;16.27;;;;;;;;;;4290854;32;319302;-86
2023/11/07 21:42:51;;;;;;;29.40;14.70;;;;;;;;;;4316046;33;318889;-85
2023/11/07 21:45:19;;;;;;;33.93;18.13;;;;;;;;;;4293270;33;319312;-86
2023/11/07 21:47:47;;;;;;;37.40;18.23;;;;;;;;;;4310838;33;319353;-87
2023/11/07 21:50:13;;;;;;;32.53;17.47;;;;;;;;;;4307912;33;319277;-85
2023/11/07 21:52:40;;;;;;;36.87;18.43;;;;;;;;;;4309432;33;319226;-83
2023/11/07 21:55:08;;;;;;;36.63;20.27;;;;;;;;;;4314874;33;319358;-85
2023/11/07 21:57:36;;;;;;;31.10;17.57;;;;;;;;;;4306895;32;319181;-83
2023/11/07 22:00:03;;;;;;;31.20;18.60;;;;;;;;;;4317557;33;319131;-84
2023/11/07 22:02:31;;;;;;;39.50;18.17;;;;;;;;;;4302930;32;319321;-83
2023/11/07 22:04:58;;;;;;;34.00;17.33;;;;;;;;;;4330311;32;319400;-85
2023/11/07 22:07:25;;;;;;;33.73;17.80;;;;;;;;;;4319997;32;319642;-87
2023/11/07 22:09:52;;;;;;;41.57;20.63;;;;;;;;;;4332242;32;319246;-84
2023/11/07 22:12:19;;;;;;;44.47;20.47;;;;;;;;;;4304469;32;319298;-89
2023/11/07 22:14:45;;;;;;;45.10;24.47;;;;;;;;;;4317745;33;319867;-85
2023/11/07 22:17:13;;;;;;;44.97;27.63;;;;;;;;;;4305534;33;319888;-87
2023/11/07 22:19:41;;;;;;;51.77;28.90;;;;;;;;;;4316830;33;318788;-88
2023/11/07 22:22:07;;;;;;;54.40;32.00;;;;;;;;;;4317548;33;318817;-86
2023/11/07 22:24:35;;;;;;;51.57;30.37;;;;;;;;;;4299366;33;319202;-86
2023/11/07 22:27:02;;;;;;;50.17;29.50;;;;;;;;;;4315700;33;319562;-84
2023/11/07 22:29:29;;;;;;;55.50;31.20;;;;;;;;;;4302680;32;319323;-84
2023/11/07 22:31:56;;;;;;;43.93;27.50;;;;;;;;;;4316280;32;318831;-86
2023/11/07 22:34:22;;;;;;;51.00;23.80;;;;;;;;;;4296346;32;323553;-85
2023/11/07 22:36:51;;;;;;;48.73;26.33;;;;;;;;;;4309713;33;319959;-85
2023/11/07 22:39:18;;;;;;;37.03;23.80;;;;;;;;;;4304580;33;361017;-85
2023/11/07 22:41:49;;;;;;;41.00;24.13;;;;;;;;;;4320507;32;319647;-86
2023/11/07 22:44:16;;;;;;;44.40;22.73;;;;;;;;;;4306426;33;319212;-88
2023/11/07 22:46:42;;;;;;;43.57;24.13;;;;;;;;;;4314030;32;319310;-85
2023/11/07 22:49:09;;;;;;;42.57;26.47;;;;;;;;;;4316021;32;318827;-86
2023/11/07 22:51:36;;;;;;;48.40;25.50;;;;;;;;;;4304408;33;418457;-83
2023/11/07 22:54:04;;;;;;;48.40;25.33;;;;;;;;;;4313569;33;319162;-86
2023/11/07 22:56:32;;;;;;;57.63;27.40;;;;;;;;;;4298952;33;319362;-88
2023/11/07 22:58:59;;;;;;;48.77;24.57;;;;;;;;;;4316152;33;318910;-85
2023/11/07 23:01:29;;;;;;;46.47;25.13;;;;;;;;;;4306020;33;319695;-86
2023/11/07 23:03:56;;;;;;;52.80;25.43;;;;;;;;;;4325932;32;319654;-86
2023/11/07 23:06:23;;;;;;;48.17;24.93;;;;;;;;;;4312663;32;319695;-86
2023/11/07 23:08:50;;;;;;;46.33;25.97;;;;;;;;;;4325664;32;319222;-85
2023/11/07 23:11:18;;;;;;;43.73;24.20;;;;;;;;;;4309824;32;319051;-88
2023/11/07 23:13:45;;;;;;;40.63;22.37;;;;;;;;;;4307981;33;319563;-86
2023/11/07 23:16:12;;;;;;;40.10;21.33;;;;;;;;;;4310248;32;319311;-85